Time;durP1;ratioP1;P1;durP2;ratioP2;P2;SDS_P1;SDS_P2;PMS_P1;PMS_P2;Temp;Humidity;BMP_temperature;BMP_pressure;BME280_temperature;BME280_humidity;BME280_pressure;Samples;Min_cycle;Max_cycle;Signal;HPM_P1;HPM_P2
2021/04/29 00:00:39;;;;;;;19.25;12.68;;;10.90;61.90;;;;;;5026810;28;20076;-74
2021/04/29 00:03:05;;;;;;;16.88;12.65;;;10.90;62.80;;;;;;5018787;28;20026;-74
2021/04/29 00:05:30;;;;;;;18.70;12.65;;;10.80;62.00;;;;;;5019207;28;20036;-74
2021/04/29 00:07:56;;;;;;;19.20;12.55;;;10.80;62.70;;;;;;5019220;28;20037;-74
2021/04/29 00:10:26;;;;;;;19.30;12.65;;;10.80;62.80;;;;;;5018382;28;20018;-74
2021/04/29 00:12:52;;;;;;;21.45;13.35;;;10.70;61.60;;;;;;5018540;28;20981;-74
2021/04/29 00:15:18;;;;;;;19.35;12.40;;;10.70;61.60;;;;;;5034001;28;20037;-74
2021/04/29 00:17:44;;;;;;;20.20;12.73;;;10.70;63.10;;;;;;5018530;28;20474;-74
2021/04/29 00:20:13;;;;;;;21.70;12.82;;;10.70;63.00;;;;;;5018858;28;20034;-74
2021/04/29 00:22:39;;;;;;;18.55;12.75;;;10.70;62.90;;;;;;5018625;28;20045;-74
2021/04/29 00:25:06;;;;;;;19.77;13.25;;;10.70;62.60;;;;;;5018683;28;20022;-74
2021/04/29 00:27:32;;;;;;;21.85;13.38;;;10.60;63.20;;;;;;5018011;28;20046;-74
2021/04/29 00:29:57;;;;;;;19.08;12.70;;;10.60;63.00;;;;;;5018661;28;20033;-74
2021/04/29 00:32:23;;;;;;;20.25;12.82;;;10.60;63.70;;;;;;5032273;28;20026;-74
2021/04/29 00:34:49;;;;;;;19.10;13.27;;;10.60;63.10;;;;;;5018569;28;20026;-74
2021/04/29 00:37:14;;;;;;;20.65;12.70;;;10.60;63.40;;;;;;5033087;28;20172;-73
2021/04/29 00:39:40;;;;;;;17.92;11.32;;;10.60;63.40;;;;;;5033473;28;20527;-74
2021/04/29 00:42:07;;;;;;;18.98;12.68;;;10.50;62.80;;;;;;5033727;28;20060;-74
2021/04/29 00:44:33;;;;;;;19.95;12.98;;;10.50;63.30;;;;;;5018358;28;20057;-74
2021/04/29 00:47:00;;;;;;;19.52;12.98;;;10.50;63.30;;;;;;5019594;28;20531;-74
2021/04/29 00:49:26;;;;;;;19.90;13.07;;;10.50;63.20;;;;;;5016972;28;20100;-74
2021/04/29 00:51:52;;;;;;;22.92;14.02;;;10.40;63.70;;;;;;5017878;28;20041;-74
2021/04/29 00:54:17;;;;;;;22.02;13.35;;;10.40;63.00;;;;;;5018051;28;20033;-74
2021/04/29 00:56:43;;;;;;;22.45;13.40;;;10.40;63.40;;;;;;5017499;28;20037;-74
2021/04/29 00:59:09;;;;;;;20.92;13.32;;;10.30;63.10;;;;;;5027161;28;20377;-74
2021/04/29 01:01:35;;;;;;;21.40;13.13;;;10.30;64.10;;;;;;5037898;28;20026;-74
2021/04/29 01:04:13;;;;;;;21.65;13.13;;;10.30;63.60;;;;;;5037850;28;20079;-74
2021/04/29 01:06:45;;;;;;;24.02;13.60;;;10.30;62.90;;;;;;5022178;28;20030;-74
2021/04/29 01:09:32;;;;;;;24.13;13.95;;;10.30;63.90;;;;;;5017889;28;20026;-73
2021/04/29 01:12:02;;;;;;;19.98;12.98;;;10.20;63.70;;;;;;5017454;28;20053;-74
2021/04/29 01:14:30;;;;;;;20.05;12.82;;;10.20;63.10;;;;;;5017241;28;20026;-74
2021/04/29 01:16:57;;;;;;;19.42;13.48;;;10.20;63.40;;;;;;5032919;28;20192;-74
2021/04/29 01:19:33;;;;;;;21.65;12.80;;;10.20;64.00;;;;;;5017269;28;20025;-74
2021/04/29 01:21:59;;;;;;;23.10;14.13;;;10.20;64.20;;;;;;5017612;28;20049;-74
2021/04/29 01:24:28;;;;;;;22.73;13.98;;;10.20;64.90;;;;;;5015609;28;20042;-74
2021/04/29 01:27:00;;;;;;;27.13;15.23;;;10.10;65.30;;;;;;5032664;28;20040;-74
2021/04/29 01:29:30;;;;;;;20.55;13.75;;;10.10;64.10;;;;;;5016965;28;20060;-74
2021/04/29 01:31:57;;;;;;;23.65;14.32;;;10.20;63.70;;;;;;5017621;28;20026;-74
2021/04/29 01:34:25;;;;;;;24.58;15.02;;;10.10;65.00;;;;;;5017684;28;20032;-74
2021/04/29 01:36:52;;;;;;;22.60;14.48;;;10.10;65.50;;;;;;5015648;28;20108;-74
2021/04/29 01:39:18;;;;;;;25.23;15.27;;;10.10;63.60;;;;;;5016203;28;20025;-74
2021/04/29 01:41:47;;;;;;;21.45;13.85;;;10.00;65.20;;;;;;5015273;28;20484;-73
2021/04/29 01:44:15;;;;;;;23.25;14.30;;;10.00;65.30;;;;;;4997672;28;20508;-74
2021/04/29 01:46:42;;;;;;;23.27;15.20;;;10.00;65.60;;;;;;4997640;28;20568;-74
2021/04/29 01:49:09;;;;;;;22.58;14.25;;;10.00;65.70;;;;;;5006601;28;20038;-74
2021/04/29 01:51:37;;;;;;;23.92;14.55;;;10.00;64.40;;;;;;5017201;28;20029;-74
2021/04/29 01:54:04;;;;;;;23.83;14.70;;;10.00;64.30;;;;;;5016950;28;20475;-74
2021/04/29 01:56:30;;;;;;;23.00;14.00;;;9.90;65.40;;;;;;5016410;28;20042;-74
2021/04/29 01:58:55;;;;;;;22.88;13.93;;;9.90;65.70;;;;;;5024312;28;20021;-74
2021/04/29 02:01:21;;;;;;;25.85;15.90;;;9.90;65.60;;;;;;5036752;28;20140;-74
2021/04/29 02:03:48;;;;;;;25.13;15.07;;;9.90;65.90;;;;;;5036664;28;20120;-74
2021/04/29 02:06:14;;;;;;;25.40;15.50;;;9.90;66.40;;;;;;5025687;28;20037;-74
2021/04/29 02:08:39;;;;;;;24.98;16.70;;;9.80;65.80;;;;;;5016828;28;20029;-74
2021/04/29 02:11:06;;;;;;;25.75;15.40;;;9.70;67.50;;;;;;5016803;28;20026;-74
2021/04/29 02:13:34;;;;;;;26.02;16.83;;;9.70;66.20;;;;;;5016702;28;20030;-74
2021/04/29 02:16:05;;;;;;;24.00;15.30;;;9.60;67.50;;;;;;5016178;28;20105;-74
2021/04/29 02:18:32;;;;;;;25.63;16.67;;;9.70;67.40;;;;;;5016602;28;20485;-74
2021/04/29 02:21:00;;;;;;;25.85;15.40;;;9.60;67.70;;;;;;5016547;28;20071;-74
2021/04/29 02:23:26;;;;;;;27.27;16.17;;;9.60;67.90;;;;;;5015033;28;20050;-74
2021/04/29 02:25:54;;;;;;;25.88;16.23;;;9.60;67.20;;;;;;4996741;28;20508;-74
2021/04/29 02:28:21;;;;;;;25.70;16.45;;;9.70;67.00;;;;;;4996768;28;20504;-73
2021/04/29 02:30:49;;;;;;;26.42;16.58;;;9.70;66.40;;;;;;4996804;28;20034;-74
2021/04/29 02:33:16;;;;;;;29.75;16.73;;;9.60;67.20;;;;;;5011029;28;20030;-74
2021/04/29 02:35:44;;;;;;;24.83;16.10;;;9.60;66.90;;;;;;5031510;28;20040;-74
2021/04/29 02:38:14;;;;;;;27.05;16.70;;;9.60;67.40;;;;;;5016231;28;20100;-74
2021/04/29 02:40:39;;;;;;;28.25;15.95;;;9.60;67.10;;;;;;5015781;28;20057;-74
2021/04/29 02:43:06;;;;;;;23.23;15.57;;;9.60;66.30;;;;;;5016316;28;20038;-74
2021/04/29 02:45:34;;;;;;;26.45;15.05;;;9.50;65.70;;;;;;5016134;28;20397;-73
2021/04/29 02:48:00;;;;;;;27.02;15.48;;;9.50;66.60;;;;;;5023144;28;20518;-74
2021/04/29 02:50:26;;;;;;;25.90;15.75;;;9.50;67.60;;;;;;5016151;28;20384;-74
2021/04/29 02:52:53;;;;;;;23.88;15.48;;;9.40;67.20;;;;;;5014750;28;20026;-74
2021/04/29 02:55:24;;;;;;;28.75;15.43;;;9.40;68.10;;;;;;5015335;28;20018;-74
2021/04/29 02:57:57;;;;;;;24.95;16.00;;;9.40;67.20;;;;;;5030636;28;20341;-74
2021/04/29 03:00:24;;;;;;;26.10;15.65;;;9.40;66.80;;;;;;5033035;28;20029;-74
2021/04/29 03:02:50;;;;;;;28.42;16.30;;;9.40;68.80;;;;;;5035632;28;20051;-74
2021/04/29 03:05:15;;;;;;;26.42;16.08;;;9.40;67.80;;;;;;5034415;28;20026;-74
2021/04/29 03:07:43;;;;;;;26.75;17.05;;;9.30;67.90;;;;;;5023769;28;20112;-74
2021/04/29 03:10:10;;;;;;;28.85;16.88;;;9.30;68.80;;;;;;5015601;28;20057;-74
2021/04/29 03:12:37;;;;;;;28.05;16.83;;;9.30;68.90;;;;;;5011078;28;20524;-74
2021/04/29 03:15:06;;;;;;;27.73;17.60;;;9.30;69.00;;;;;;5013767;28;20056;-74
2021/04/29 03:17:31;;;;;;;25.75;15.88;;;9.30;68.00;;;;;;5015671;28;20018;-74
2021/04/29 03:19:57;;;;;;;28.35;15.90;;;9.30;67.50;;;;;;5015114;28;20033;-74
2021/04/29 03:22:23;;;;;;;31.70;18.13;;;9.30;67.20;;;;;;5030621;28;20050;-74
2021/04/29 03:24:49;;;;;;;27.35;17.00;;;9.20;67.20;;;;;;5015470;28;20378;-74
2021/04/29 03:27:16;;;;;;;27.52;16.55;;;9.20;68.30;;;;;;5015650;28;20033;-74
2021/04/29 03:29:42;;;;;;;29.55;17.63;;;9.00;69.20;;;;;;5015042;28;20049;-74
2021/04/29 03:32:07;;;;;;;29.35;18.08;;;9.00;69.50;;;;;;5015589;28;20034;-74
2021/04/29 03:34:33;;;;;;;27.90;17.55;;;8.90;70.80;;;;;;5014659;28;20025;-74
2021/04/29 03:36:59;;;;;;;30.15;17.08;;;9.00;70.70;;;;;;5015527;28;20029;-74
2021/04/29 03:39:24;;;;;;;27.40;17.05;;;9.00;70.80;;;;;;5015492;28;20029;-74
2021/04/29 03:41:50;;;;;;;30.85;17.52;;;9.10;70.50;;;;;;5015372;28;20034;-74
2021/04/29 03:44:16;;;;;;;27.45;16.38;;;9.20;69.30;;;;;;5014278;28;20083;-74
2021/04/29 03:46:42;;;;;;;28.88;16.77;;;9.30;70.40;;;;;;5015446;28;20033;-74
2021/04/29 03:49:07;;;;;;;28.75;17.42;;;9.30;69.40;;;;;;5013355;28;20045;-74
2021/04/29 03:51:33;;;;;;;34.55;18.17;;;9.30;68.30;;;;;;5015439;28;20025;-74
2021/04/29 03:53:59;;;;;;;26.60;17.17;;;9.30;69.60;;;;;;5015440;28;20022;-74
2021/04/29 03:56:24;;;;;;;27.48;17.50;;;9.30;70.00;;;;;;5015278;28;20369;-74
2021/04/29 03:58:50;;;;;;;28.02;17.35;;;9.30;70.30;;;;;;5032147;28;20025;-74
2021/04/29 04:01:16;;;;;;;30.95;17.65;;;9.20;69.70;;;;;;5035009;28;20025;-74
2021/04/29 04:03:41;;;;;;;28.60;18.40;;;9.20;69.70;;;;;;5035111;28;20025;-74
2021/04/29 04:06:08;;;;;;;30.27;18.55;;;9.20;69.30;;;;;;5032089;28;20048;-74
2021/04/29 04:08:34;;;;;;;33.30;18.63;;;9.20;71.50;;;;;;5015250;28;20025;-74
2021/04/29 04:10:59;;;;;;;29.15;18.45;;;9.10;71.90;;;;;;5028452;28;20026;-73
2021/04/29 04:13:25;;;;;;;30.55;18.38;;;9.10;71.50;;;;;;5013760;28;20026;-74
2021/04/29 04:15:51;;;;;;;31.20;19.58;;;9.10;72.20;;;;;;5015250;28;20469;-74
2021/04/29 04:18:16;;;;;;;31.42;19.55;;;9.10;72.00;;;;;;5014604;28;20428;-74
2021/04/29 04:20:43;;;;;;;31.85;19.23;;;9.10;72.10;;;;;;5014521;28;20030;-74
2021/04/29 04:23:10;;;;;;;33.05;20.02;;;9.10;72.10;;;;;;5030147;28;20082;-74
2021/04/29 04:25:36;;;;;;;33.88;18.45;;;9.10;72.60;;;;;;5030087;28;20088;-74
2021/04/29 04:28:02;;;;;;;32.88;19.38;;;9.10;72.10;;;;;;5015150;28;20034;-74
2021/04/29 04:30:28;;;;;;;35.63;19.00;;;9.10;71.90;;;;;;5014565;28;20080;-74
2021/04/29 04:32:54;;;;;;;31.58;19.48;;;9.10;71.10;;;;;;5014111;28;20053;-74
2021/04/29 04:35:21;;;;;;;31.50;19.73;;;9.10;72.90;;;;;;5014497;28;20100;-74
